createdAt,value
2018-06-11T00:00:49.931Z,53.40
2018-06-11T00:03:18.016Z,53.20
2018-06-11T00:05:46.093Z,53.30
2018-06-11T00:08:14.163Z,53.50
2018-06-11T00:10:42.245Z,53.50
2018-06-11T00:13:10.335Z,53.40
2018-06-11T00:15:38.442Z,53.40
2018-06-11T00:18:06.519Z,53.50
2018-06-11T00:20:34.651Z,53.60
2018-06-11T00:23:02.785Z,53.40
2018-06-11T00:27:58.742Z,53.50
2018-06-11T00:30:26.865Z,53.70
2018-06-11T00:32:54.960Z,53.50
2018-06-11T00:35:23.068Z,53.50
2018-06-11T00:37:51.127Z,53.40
2018-06-11T00:40:19.258Z,53.50
2018-06-11T00:42:47.351Z,53.50
2018-06-11T00:45:15.452Z,53.60
2018-06-11T00:47:43.539Z,53.60
2018-06-11T00:50:11.633Z,53.40
2018-06-11T00:52:39.726Z,53.50
2018-06-11T00:55:07.840Z,53.50
2018-06-11T00:57:35.940Z,53.60
2018-06-11T01:00:04.300Z,53.70
2018-06-11T01:05:00.273Z,53.80
2018-06-11T01:07:28.389Z,53.70
2018-06-11T01:09:56.467Z,53.80
2018-06-11T01:12:24.588Z,53.80
2018-06-11T01:17:21.855Z,53.70
2018-06-11T01:19:49.972Z,53.60
2018-06-11T01:22:18.075Z,53.90
2018-06-11T01:24:46.180Z,54.10
2018-06-11T01:27:14.316Z,53.90
2018-06-11T01:29:42.378Z,54.00
2018-06-11T01:34:38.366Z,53.90
2018-06-11T01:37:06.601Z,53.60
2018-06-11T01:39:34.711Z,54.20
2018-06-11T01:42:02.832Z,53.60
2018-06-11T01:44:30.916Z,53.70
2018-06-11T01:46:59.026Z,53.60
2018-06-11T01:49:27.128Z,53.70
2018-06-11T01:51:55.233Z,53.30
2018-06-11T01:54:24.268Z,53.40
2018-06-11T01:56:52.399Z,53.30
2018-06-11T01:59:20.485Z,53.50
2018-06-11T02:01:48.583Z,53.60
2018-06-11T02:04:16.678Z,53.20
2018-06-11T02:06:44.776Z,53.40
2018-06-11T02:09:12.885Z,53.60
2018-06-11T02:11:41.042Z,53.50
2018-06-11T02:14:09.136Z,53.40
2018-06-11T02:16:37.273Z,53.30
2018-06-11T02:19:05.413Z,53.40
2018-06-11T02:21:33.544Z,53.50
2018-06-11T02:24:01.669Z,53.70
2018-06-11T02:26:29.816Z,54.00
2018-06-11T02:28:57.936Z,53.70
2018-06-11T02:31:26.057Z,53.80
2018-06-11T02:33:54.162Z,53.60
2018-06-11T02:36:22.268Z,53.80
2018-06-11T02:38:50.405Z,53.60
2018-06-11T02:41:18.520Z,53.50
2018-06-11T02:43:46.612Z,53.70
2018-06-11T02:46:14.754Z,53.60
2018-06-11T02:48:42.852Z,53.30
2018-06-11T02:51:10.960Z,53.20
2018-06-11T02:53:39.065Z,53.20
2018-06-11T02:56:07.169Z,53.20
2018-06-11T02:58:35.359Z,53.20
2018-06-11T03:01:03.507Z,53.00
2018-06-11T03:03:31.614Z,52.80
2018-06-11T03:05:59.746Z,52.90
2018-06-11T03:08:27.860Z,53.20
2018-06-11T03:10:55.977Z,53.40
2018-06-11T03:13:24.465Z,53.10
2018-06-11T03:15:52.561Z,52.90
2018-06-11T03:18:20.686Z,53.30
2018-06-11T03:20:48.848Z,53.30
2018-06-11T03:23:17.081Z,53.10
2018-06-11T03:25:45.209Z,52.80
2018-06-11T03:30:41.231Z,52.90
2018-06-11T03:33:09.377Z,52.60
2018-06-11T03:35:37.484Z,52.80
2018-06-11T03:38:05.639Z,53.00
2018-06-11T03:40:33.753Z,53.60
2018-06-11T03:43:01.876Z,52.70
2018-06-11T03:45:29.993Z,52.90
2018-06-11T03:47:58.097Z,52.80
2018-06-11T03:50:26.230Z,52.90
2018-06-11T03:52:54.357Z,52.90
2018-06-11T03:55:22.510Z,52.70
2018-06-11T03:57:50.636Z,52.80
2018-06-11T04:00:18.776Z,52.80
2018-06-11T04:02:46.901Z,52.60
2018-06-11T04:05:15.012Z,52.60
2018-06-11T04:07:43.146Z,52.50
2018-06-11T04:10:11.257Z,52.60
2018-06-11T04:15:07.355Z,52.50
2018-06-11T04:17:35.488Z,52.50
2018-06-11T04:20:03.617Z,52.50
2018-06-11T04:22:31.728Z,52.40
2018-06-11T04:24:59.844Z,52.50
2018-06-11T04:27:27.980Z,52.40
2018-06-11T04:29:56.090Z,52.20
2018-06-11T04:32:24.229Z,52.40
2018-06-11T04:34:52.367Z,52.40
2018-06-11T04:37:20.501Z,52.50
2018-06-11T04:39:48.604Z,52.30
2018-06-11T04:42:16.730Z,52.40
2018-06-11T04:44:44.835Z,52.40
2018-06-11T04:47:12.936Z,52.40
2018-06-11T04:49:41.049Z,52.20
2018-06-11T04:52:09.263Z,52.40
2018-06-11T04:54:37.376Z,52.30
2018-06-11T04:57:05.513Z,52.40
2018-06-11T04:59:33.633Z,52.40
2018-06-11T05:02:01.753Z,52.40
2018-06-11T05:04:29.887Z,52.50
2018-06-11T05:06:57.996Z,52.30
2018-06-11T05:09:29.653Z,52.30
2018-06-11T05:11:57.768Z,51.90
2018-06-11T05:14:25.884Z,52.00
2018-06-11T05:16:54.029Z,52.00
2018-06-11T05:19:22.161Z,51.90
2018-06-11T05:21:50.291Z,52.00
2018-06-11T05:24:18.421Z,52.00
2018-06-11T05:26:46.609Z,52.00
2018-06-11T05:29:14.749Z,52.10
2018-06-11T05:31:42.872Z,52.10
2018-06-11T05:34:10.984Z,52.10
2018-06-11T05:36:39.100Z,52.00
2018-06-11T05:39:08.053Z,52.00
2018-06-11T05:41:36.432Z,51.90
2018-06-11T05:44:04.567Z,52.00
2018-06-11T05:46:32.722Z,52.00
2018-06-11T05:49:00.933Z,52.00
2018-06-11T05:51:29.048Z,52.10
2018-06-11T05:53:57.177Z,52.10
2018-06-11T05:58:53.273Z,52.00
2018-06-11T06:01:21.372Z,52.60
2018-06-11T06:03:49.484Z,52.10
2018-06-11T06:06:17.600Z,52.00
2018-06-11T06:08:45.728Z,52.00
2018-06-11T06:11:13.834Z,52.00
2018-06-11T06:13:41.944Z,52.20
2018-06-11T06:16:10.112Z,52.30
2018-06-11T06:18:38.223Z,52.40
2018-06-11T06:21:06.361Z,52.20
2018-06-11T06:23:34.484Z,52.00
2018-06-11T06:26:02.611Z,52.10
2018-06-11T06:28:30.715Z,52.10
2018-06-11T06:30:58.835Z,51.80
2018-06-11T06:40:50.698Z,52.00
2018-06-11T06:43:18.809Z,51.90
2018-06-11T06:45:46.916Z,51.80
2018-06-11T06:48:15.052Z,52.00
2018-06-11T06:50:43.179Z,51.70
2018-06-11T06:53:11.289Z,51.70
2018-06-11T06:55:39.433Z,50.90
2018-06-11T06:58:07.545Z,50.70
2018-06-11T07:00:35.664Z,49.80
2018-06-11T07:03:03.821Z,49.80
2018-06-11T07:05:31.960Z,50.00
2018-06-11T07:08:00.092Z,50.80
2018-06-11T07:10:28.217Z,50.60
2018-06-11T07:12:56.399Z,49.40
2018-06-11T07:15:24.556Z,49.40
2018-06-11T07:17:52.677Z,50.00
2018-06-11T07:20:20.812Z,50.00
2018-06-11T07:22:48.924Z,50.30
2018-06-11T07:25:17.063Z,49.80
2018-06-11T07:30:13.173Z,50.40
2018-06-11T07:35:09.234Z,49.60
2018-06-11T07:37:37.320Z,49.20
2018-06-11T07:40:05.453Z,48.40
2018-06-11T07:45:01.476Z,48.40
2018-06-11T07:47:29.712Z,48.70
2018-06-11T07:49:58.104Z,47.90
2018-06-11T07:55:00.933Z,47.70
2018-06-11T07:57:29.068Z,47.60
2018-06-11T07:59:57.231Z,47.30
2018-06-11T08:02:25.330Z,47.80
2018-06-11T08:04:53.461Z,47.40
2018-06-11T08:07:21.593Z,46.80
2018-06-11T08:12:17.606Z,47.00
2018-06-11T08:14:45.744Z,47.10
2018-06-11T08:17:13.884Z,47.10
2018-06-11T08:22:09.927Z,46.40
2018-06-11T08:24:38.028Z,47.00
2018-06-11T08:27:06.208Z,46.20
2018-06-11T08:29:34.341Z,46.10
2018-06-11T08:32:02.527Z,46.50
2018-06-11T08:34:30.621Z,46.30
2018-06-11T08:36:58.745Z,46.20
2018-06-11T08:39:26.865Z,46.00
2018-06-11T08:41:54.965Z,46.70
2018-06-11T08:44:23.452Z,46.30
2018-06-11T08:49:19.529Z,46.00
2018-06-11T08:51:47.665Z,46.20
2018-06-11T08:54:15.791Z,46.00
2018-06-11T08:56:43.922Z,45.00
2018-06-11T08:59:12.046Z,44.60
2018-06-11T09:04:08.117Z,44.10
2018-06-11T09:06:36.229Z,43.40
2018-06-11T09:09:07.530Z,44.10
2018-06-11T09:11:35.714Z,43.70
2018-06-11T09:14:04.441Z,43.50
2018-06-11T09:16:32.672Z,43.60
2018-06-11T09:19:00.864Z,43.30
2018-06-11T09:23:56.886Z,43.50
2018-06-11T09:26:25.110Z,43.60
2018-06-11T09:33:54.252Z,44.20
2018-06-11T09:36:22.368Z,44.10
2018-06-11T09:38:50.513Z,43.40
2018-06-11T09:41:22.086Z,43.20
2018-06-11T09:46:19.426Z,42.20
2018-06-11T09:48:47.611Z,41.60
2018-06-11T09:51:15.736Z,41.50
2018-06-11T09:53:43.873Z,40.80
2018-06-11T09:56:13.044Z,40.90
2018-06-11T09:58:41.192Z,41.90
2018-06-11T10:01:09.316Z,41.80
2018-06-11T10:03:37.451Z,41.30
2018-06-11T10:06:05.814Z,41.70
2018-06-11T10:08:33.946Z,41.30
2018-06-11T10:11:02.046Z,41.80
2018-06-11T10:13:30.175Z,41.40
2018-06-11T10:15:58.312Z,41.00
2018-06-11T10:18:26.449Z,41.00
2018-06-11T10:20:56.489Z,40.90
2018-06-11T10:23:24.693Z,41.10
2018-06-11T10:25:52.804Z,40.80
2018-06-11T10:28:20.949Z,40.60
2018-06-11T10:30:49.056Z,41.00
2018-06-11T10:33:17.197Z,41.20
2018-06-11T10:35:45.323Z,40.20
2018-06-11T10:38:13.438Z,40.20
2018-06-11T10:40:41.556Z,40.70
2018-06-11T10:43:09.677Z,39.80
2018-06-11T10:45:37.773Z,39.40
2018-06-11T10:48:05.913Z,39.30
2018-06-11T10:50:34.041Z,39.30
2018-06-11T10:53:02.151Z,39.10
2018-06-11T10:55:30.292Z,38.50
2018-06-11T10:57:58.440Z,38.90
2018-06-11T11:00:26.564Z,38.30
2018-06-11T11:02:54.683Z,39.00
2018-06-11T11:05:22.857Z,38.90
2018-06-11T11:07:50.972Z,38.70
2018-06-11T11:10:19.096Z,37.50
2018-06-11T11:12:47.229Z,37.10
2018-06-11T11:15:15.357Z,37.90
2018-06-11T11:17:43.464Z,37.60
2018-06-11T11:20:11.577Z,38.10
2018-06-11T11:22:39.711Z,37.60
2018-06-11T11:25:07.841Z,37.00
2018-06-11T11:27:35.983Z,35.80
2018-06-11T11:30:04.569Z,36.60
2018-06-11T11:32:32.711Z,36.80
2018-06-11T11:35:00.842Z,36.90
2018-06-11T11:37:28.960Z,38.10
2018-06-11T11:39:57.093Z,38.10
2018-06-11T11:44:53.101Z,37.10
2018-06-11T11:47:21.227Z,37.20
2018-06-11T11:49:49.385Z,36.80
2018-06-11T11:52:17.498Z,37.60
2018-06-11T11:54:45.621Z,37.70
2018-06-11T11:57:13.736Z,37.30
2018-06-11T11:59:41.853Z,37.00
2018-06-11T12:02:10.023Z,35.70
2018-06-11T12:04:38.128Z,35.40
2018-06-11T12:07:06.252Z,35.90
2018-06-11T12:09:34.380Z,36.50
2018-06-11T12:14:37.020Z,35.20
2018-06-11T12:17:05.159Z,34.30
2018-06-11T12:19:33.292Z,34.40
2018-06-11T12:22:01.410Z,33.00
2018-06-11T12:26:57.395Z,34.30
2018-06-11T12:34:21.332Z,35.60
2018-06-11T12:36:49.453Z,36.10
2018-06-11T12:39:17.602Z,35.90
2018-06-11T12:41:45.748Z,35.00
2018-06-11T12:44:13.873Z,35.90
2018-06-11T12:46:44.241Z,35.20
2018-06-11T12:49:12.356Z,35.90
2018-06-11T12:51:40.480Z,35.20
2018-06-11T12:54:08.596Z,36.20
2018-06-11T12:56:36.732Z,35.90
2018-06-11T12:59:04.849Z,35.20
2018-06-11T13:01:33.010Z,35.80
2018-06-11T13:04:01.120Z,33.70
2018-06-11T13:06:29.390Z,35.10
2018-06-11T13:08:57.544Z,34.90
2018-06-11T13:11:25.621Z,34.70
2018-06-11T13:13:53.758Z,34.60
2018-06-11T13:16:21.873Z,35.20
2018-06-11T13:18:49.999Z,34.50
2018-06-11T13:21:18.110Z,34.80
2018-06-11T13:23:46.229Z,34.90
2018-06-11T13:26:14.365Z,35.00
2018-06-11T13:28:42.507Z,34.70
2018-06-11T13:31:10.617Z,35.00
2018-06-11T13:33:38.749Z,34.90
2018-06-11T13:36:06.894Z,33.70
2018-06-11T13:38:35.024Z,33.40
2018-06-11T13:41:03.216Z,34.30
2018-06-11T13:43:31.356Z,34.70
2018-06-11T13:45:59.463Z,34.50
2018-06-11T13:48:27.593Z,33.60
2018-06-11T13:50:55.729Z,33.80
2018-06-11T13:53:23.868Z,34.70
2018-06-11T13:55:51.980Z,33.80
2018-06-11T13:58:20.092Z,33.80
2018-06-11T14:00:48.229Z,34.10
2018-06-11T14:03:16.359Z,33.30
2018-06-11T14:05:44.544Z,33.50
2018-06-11T14:08:12.661Z,33.80
2018-06-11T14:10:40.764Z,35.30
2018-06-11T14:13:08.892Z,34.20
2018-06-11T14:15:37.003Z,33.00
2018-06-11T14:18:05.188Z,34.40
2018-06-11T14:20:33.321Z,34.10
2018-06-11T14:23:01.419Z,34.50
2018-06-11T14:25:29.544Z,33.00
2018-06-11T14:30:25.561Z,32.80
2018-06-11T14:32:53.738Z,34.10
2018-06-11T14:35:21.876Z,33.80
2018-06-11T14:37:49.995Z,34.80
2018-06-11T14:40:18.146Z,35.00
2018-06-11T14:42:46.276Z,34.00
2018-06-11T14:45:14.401Z,33.60
2018-06-11T14:47:42.521Z,33.50
2018-06-11T14:50:10.656Z,34.70
2018-06-11T14:52:38.792Z,35.20
2018-06-11T14:55:06.921Z,33.20
2018-06-11T14:57:35.052Z,34.40
2018-06-11T15:00:03.174Z,34.80
2018-06-11T15:02:31.306Z,35.10
2018-06-11T15:09:55.241Z,35.90
2018-06-11T15:12:23.440Z,35.60
2018-06-11T15:14:51.564Z,35.30
2018-06-11T15:17:19.739Z,35.90
2018-06-11T15:19:47.879Z,36.60
2018-06-11T15:22:16.018Z,36.20
2018-06-11T15:24:44.135Z,36.00
2018-06-11T15:27:12.264Z,36.80
2018-06-11T15:37:04.197Z,36.50
2018-06-11T15:39:32.308Z,36.30
2018-06-11T15:42:00.441Z,36.40
2018-06-11T15:44:28.539Z,36.00
2018-06-11T15:46:56.661Z,36.40
2018-06-11T15:49:24.803Z,36.20
2018-06-11T15:51:52.958Z,37.20
2018-06-11T15:54:21.080Z,36.80
2018-06-11T15:56:49.249Z,36.80
2018-06-11T15:59:17.340Z,35.10
2018-06-11T16:01:45.501Z,36.00
2018-06-11T16:04:13.682Z,37.10
2018-06-11T16:06:41.888Z,37.60
2018-06-11T16:09:09.988Z,37.40
2018-06-11T16:11:38.085Z,36.80
2018-06-11T16:14:06.226Z,36.90
2018-06-11T16:16:34.337Z,36.30
2018-06-11T16:19:02.581Z,36.10
2018-06-11T16:21:30.702Z,37.00
2018-06-11T16:23:59.698Z,37.30
2018-06-11T16:26:27.832Z,37.00
2018-06-11T16:28:55.965Z,37.40
2018-06-11T16:31:24.079Z,37.70
2018-06-11T16:33:52.263Z,37.60
2018-06-11T16:36:20.381Z,37.60
2018-06-11T16:38:48.505Z,37.90
2018-06-11T16:41:16.641Z,38.10
2018-06-11T16:43:44.755Z,38.80
2018-06-11T16:46:12.869Z,38.50
2018-06-11T16:48:41.010Z,38.60
2018-06-11T16:53:37.015Z,38.20
2018-06-11T16:56:05.147Z,38.50
2018-06-11T16:58:33.274Z,37.90
2018-06-11T17:01:01.406Z,38.00
2018-06-11T17:03:29.500Z,38.40
2018-06-11T17:05:57.632Z,39.20
2018-06-11T17:08:25.755Z,39.30
2018-06-11T17:10:53.850Z,39.20
2018-06-11T17:13:21.990Z,39.80
2018-06-11T17:15:50.132Z,39.70
2018-06-11T17:18:18.225Z,39.20
2018-06-11T17:20:46.356Z,39.10
2018-06-11T17:23:14.518Z,38.60
2018-06-11T17:25:42.646Z,39.30
2018-06-11T17:28:10.753Z,39.50
2018-06-11T17:30:38.881Z,40.10
2018-06-11T17:33:07.106Z,40.70
2018-06-11T17:35:35.229Z,40.30
2018-06-11T17:38:03.348Z,39.90
2018-06-11T17:40:31.492Z,39.80
2018-06-11T17:42:59.601Z,40.30
2018-06-11T17:45:27.765Z,40.10
2018-06-11T17:50:23.784Z,40.50
2018-06-11T17:52:51.959Z,40.10
2018-06-11T17:55:20.050Z,40.40
2018-06-11T18:02:43.976Z,40.20
2018-06-11T18:05:12.098Z,40.10
2018-06-11T18:07:40.213Z,40.20
2018-06-11T18:10:08.329Z,41.00
2018-06-11T18:15:04.354Z,41.10
2018-06-11T18:17:32.466Z,41.00
2018-06-11T18:20:00.592Z,40.70
2018-06-11T18:22:28.716Z,41.00
2018-06-11T18:24:56.856Z,41.00
2018-06-11T18:27:24.973Z,41.00
2018-06-11T18:29:53.128Z,41.10
2018-06-11T18:34:49.181Z,41.00
2018-06-11T18:37:17.317Z,41.10
2018-06-11T18:39:45.448Z,41.30
2018-06-11T18:42:13.578Z,41.40
2018-06-11T18:44:41.683Z,41.50
2018-06-11T18:47:09.800Z,41.50
2018-06-11T18:49:37.928Z,41.60
2018-06-11T18:52:06.031Z,41.60
2018-06-11T18:54:34.141Z,41.60
2018-06-11T18:57:02.281Z,41.50
2018-06-11T18:59:30.420Z,41.50
2018-06-11T19:01:58.545Z,41.40
2018-06-11T19:04:26.670Z,41.60
2018-06-11T19:09:22.678Z,41.80
2018-06-11T19:11:50.796Z,41.80
2018-06-11T19:14:18.924Z,42.00
2018-06-11T19:16:47.040Z,42.10
2018-06-11T19:19:15.950Z,42.20
2018-06-11T19:21:44.859Z,42.40
2018-06-11T19:29:09.237Z,42.70
2018-06-11T19:31:37.340Z,42.80
2018-06-11T19:34:05.574Z,42.90
2018-06-11T19:37:37.141Z,43.10
2018-06-11T19:40:05.277Z,43.40
2018-06-11T19:42:33.436Z,43.60
2018-06-11T19:45:01.562Z,43.60
2018-06-11T19:47:29.690Z,43.70
2018-06-11T19:49:57.883Z,43.70
2018-06-11T19:52:25.970Z,43.70
2018-06-11T19:54:54.078Z,43.80
2018-06-11T19:57:22.173Z,43.60
2018-06-11T19:59:50.340Z,43.60
2018-06-11T20:02:18.629Z,43.60
2018-06-11T20:04:46.952Z,43.80
2018-06-11T20:07:15.278Z,43.80
2018-06-11T20:09:43.660Z,43.70
2018-06-11T20:12:11.833Z,43.90
2018-06-11T20:14:39.937Z,44.10
2018-06-11T20:17:08.098Z,44.10
2018-06-11T20:19:36.317Z,44.30
2018-06-11T20:22:04.446Z,44.30
2018-06-11T20:24:32.564Z,44.30
2018-06-11T20:27:00.692Z,44.40
2018-06-11T20:29:28.809Z,44.30
2018-06-11T20:31:56.903Z,44.30
2018-06-11T20:34:25.085Z,44.30
2018-06-11T20:36:53.197Z,44.50
2018-06-11T20:39:21.345Z,44.70
2018-06-11T20:41:49.688Z,44.80
2018-06-11T20:44:17.813Z,44.90
2018-06-11T20:46:46.669Z,44.90
2018-06-11T20:49:14.812Z,45.00
2018-06-11T20:51:43.020Z,45.20
2018-06-11T20:54:11.145Z,45.00
2018-06-11T20:56:39.277Z,44.90
2018-06-11T20:59:07.454Z,44.90
2018-06-11T21:04:03.465Z,45.30
2018-06-11T21:06:31.660Z,45.40
2018-06-11T21:08:59.793Z,45.60
2018-06-11T21:11:27.919Z,45.90
2018-06-11T21:13:56.101Z,46.60
2018-06-11T21:16:24.198Z,46.00
2018-06-11T21:18:52.328Z,46.00
2018-06-11T21:23:48.729Z,46.40
2018-06-11T21:26:16.872Z,46.30
2018-06-11T21:28:44.972Z,46.30
2018-06-11T21:31:13.081Z,46.30
2018-06-11T21:33:41.212Z,46.40
2018-06-11T21:43:44.254Z,46.70
2018-06-11T21:48:43.324Z,46.90
2018-06-11T21:51:11.479Z,46.70
2018-06-11T21:53:40.179Z,46.80
2018-06-11T21:56:08.296Z,46.60
2018-06-11T21:58:36.530Z,46.90
2018-06-11T22:03:32.708Z,46.90
2018-06-11T22:06:00.797Z,46.80
2018-06-11T22:08:28.952Z,47.10
2018-06-11T22:10:57.071Z,47.00
2018-06-11T22:13:25.191Z,47.00
2018-06-11T22:15:53.327Z,47.10
2018-06-11T22:18:21.437Z,47.10
2018-06-11T22:20:56.109Z,47.10
2018-06-11T22:23:24.240Z,47.40
2018-06-11T22:25:52.328Z,47.20
2018-06-11T22:28:20.424Z,47.20
2018-06-11T22:30:48.536Z,47.30
2018-06-11T22:33:16.647Z,47.40
2018-06-11T22:38:12.660Z,47.50
2018-06-11T22:40:40.980Z,47.40
2018-06-11T22:43:09.093Z,47.40
2018-06-11T22:45:37.204Z,47.40
2018-06-11T22:48:05.334Z,47.40
2018-06-11T22:50:33.433Z,47.20
2018-06-11T22:53:01.524Z,47.40
2018-06-11T22:55:29.640Z,47.40
2018-06-11T22:57:57.759Z,47.50
2018-06-11T23:00:32.719Z,47.50
2018-06-11T23:03:01.095Z,47.40
2018-06-11T23:05:29.232Z,47.40
2018-06-11T23:07:57.469Z,47.70
2018-06-11T23:10:26.220Z,47.40
2018-06-11T23:12:54.316Z,47.50
2018-06-11T23:15:22.448Z,47.60
2018-06-11T23:17:50.582Z,47.50
2018-06-11T23:20:18.722Z,47.60
2018-06-11T23:22:46.854Z,47.60
2018-06-11T23:25:14.960Z,47.80
2018-06-11T23:27:43.087Z,47.90
2018-06-11T23:32:39.137Z,47.90
2018-06-11T23:35:07.237Z,47.90
2018-06-11T23:37:35.421Z,47.70
2018-06-11T23:40:03.569Z,48.00
2018-06-11T23:44:59.573Z,48.20
2018-06-11T23:47:27.697Z,48.20
2018-06-11T23:49:55.820Z,48.30
2018-06-11T23:52:23.953Z,48.50
2018-06-11T23:54:52.061Z,48.20
2018-06-11T23:57:20.188Z,48.40
2018-06-11T23:59:48.285Z,48.40
